Keswick, Virginia
Current Conditions -  °F | °C
As of 3:53 PM on Saturday 25 Oct 2014 (Local Time) from KCHO Reporting Station
Clear Clear  
Wind Chill: 71°   Ceiling: Unl
Heat Index: 71°   Visibility: 10mi
Dew Point: 41°   Wind: 13mph
Humidity: 34%   Direction: 210°SSW
Pressure: 29.82"   Gusts: NA
Location:  38.05°N, 78.33°W
Report Text: KCHO 251953Z 21011KT 10SM CLR 22/05 A2982 RMK AO2 SLP096 T02170050
Loading
Personal Weather Stations






























Interactive Weather Map
Tropical Storm Tracking
New forecast layout! Learn more

10-Day Weather Forecast

Advertisements
Track Severe Weather on mobile